Time;durP1;ratioP1;P1;durP2;ratioP2;P2;SDS_P1;SDS_P2;PMS_P1;PMS_P2;Temp;Humidity;BMP_temperature;BMP_pressure;BME280_temperature;BME280_humidity;BME280_pressure;Samples;Min_cycle;Max_cycle;Signal;HPM_P1;HPM_P2
2022/10/07 00:00:23;;;;;;;31.27;22.83;;;;;;;12.42;100.00;101720.28;4992083;28;20022;-66
2022/10/07 00:02:49;;;;;;;31.60;22.40;;;;;;;12.42;100.00;101708.63;4991854;28;20042;-66
2022/10/07 00:05:14;;;;;;;32.95;23.15;;;;;;;12.35;100.00;101700.13;4990516;28;20050;-66
2022/10/07 00:07:40;;;;;;;32.95;23.33;;;;;;;12.40;100.00;101713.25;4991931;28;20045;-65
2022/10/07 00:10:06;;;;;;;28.95;22.23;;;;;;;12.37;100.00;101722.41;4992056;28;20029;-67
2022/10/07 00:12:32;;;;;;;29.60;22.92;;;;;;;12.34;100.00;101717.25;4990815;28;20034;-66
2022/10/07 00:14:57;;;;;;;29.88;22.48;;;;;;;12.37;100.00;101724.25;4991968;28;20069;-65
2022/10/07 00:17:23;;;;;;;27.55;21.27;;;;;;;12.16;100.00;101683.63;4991646;28;20026;-66
2022/10/07 00:19:48;;;;;;;30.73;22.50;;;;;;;12.34;100.00;101713.69;4991634;28;20062;-66
2022/10/07 00:22:13;;;;;;;29.80;22.23;;;;;;;12.27;100.00;101697.16;4990479;28;20050;-66
2022/10/07 00:24:39;;;;;;;32.53;22.55;;;;;;;12.18;100.00;101691.56;4991788;28;20030;-66
2022/10/07 00:27:04;;;;;;;32.50;23.58;;;;;;;12.28;100.00;101708.78;4990245;28;20033;-67
2022/10/07 00:29:30;;;;;;;28.50;22.63;;;;;;;12.26;100.00;101694.59;4991879;28;20484;-66
2022/10/07 00:31:55;;;;;;;28.33;22.15;;;;;;;12.18;100.00;101678.13;4991615;28;20048;-66
2022/10/07 00:34:21;;;;;;;27.45;22.00;;;;;;;12.23;100.00;101697.50;4990118;28;20424;-66
2022/10/07 00:36:49;;;;;;;28.95;21.35;;;;;;;12.19;100.00;101691.47;4991536;28;20022;-65
2022/10/07 00:39:16;;;;;;;32.03;22.20;;;;;;;12.18;100.00;101696.97;4991349;28;20034;-66
2022/10/07 00:41:49;;;;;;;26.17;21.77;;;;;;;12.14;100.00;101688.28;4990941;28;20136;-65
2022/10/07 00:44:30;;;;;;;29.50;22.60;;;;;;;12.11;100.00;101687.63;4991346;28;20042;-77
2022/10/07 00:47:02;;;;;;;28.65;22.77;;;;;;;12.02;100.00;101666.78;4993090;28;20493;-78
2022/10/07 00:49:29;;;;;;;32.65;22.95;;;;;;;12.08;100.00;101682.47;4992660;28;20064;-78
2022/10/07 00:51:55;;;;;;;30.67;22.63;;;;;;;11.91;100.00;101655.94;4992751;28;20481;-77
2022/10/07 00:54:21;;;;;;;28.00;22.85;;;;;;;11.97;100.00;101672.50;4992521;28;20026;-76
2022/10/07 00:56:49;;;;;;;33.58;21.83;;;;;;;12.00;100.00;101682.16;4992526;28;20755;-78
2022/10/07 00:59:16;;;;;;;29.30;22.10;;;;;;;11.91;100.00;101669.38;4992874;28;20037;-77
2022/10/07 01:01:42;;;;;;;28.08;22.27;;;;;;;11.98;100.00;101670.66;4992583;28;20073;-77
2022/10/07 01:04:09;;;;;;;28.05;21.98;;;;;;;11.98;100.00;101676.91;4992561;28;20034;-78
2022/10/07 01:06:38;;;;;;;29.77;21.77;;;;;;;11.95;100.00;101687.88;4992030;28;20026;-78
2022/10/07 01:09:06;;;;;;;28.73;21.80;;;;;;;11.81;100.00;101669.19;4992629;28;20053;-78
2022/10/07 01:11:59;;;;;;;33.25;23.08;;;;;;;11.93;100.00;101689.81;4992607;28;20125;-78
2022/10/07 01:14:47;;;;;;;29.83;22.67;;;;;;;11.92;100.00;101682.72;4992389;28;20366;-77
2022/10/07 01:17:44;;;;;;;29.98;22.25;;;;;;;11.90;100.00;101679.25;4992504;28;20553;-77
2022/10/07 01:20:13;;;;;;;29.23;21.80;;;;;;;11.91;100.00;101681.00;4992029;28;20023;-78
2022/10/07 01:22:58;;;;;;;29.00;20.60;;;;;;;11.91;100.00;101680.13;4990932;28;20065;-78
2022/10/07 01:25:27;;;;;;;27.58;21.42;;;;;;;11.87;100.00;101687.56;4990981;28;20066;-77
2022/10/07 01:28:03;;;;;;;27.30;21.90;;;;;;;11.83;100.00;101685.22;4992250;28;20038;-77
2022/10/07 01:30:32;;;;;;;26.50;21.15;;;;;;;11.82;100.00;101696.91;4992186;28;20030;-78
2022/10/07 01:33:03;;;;;;;29.77;21.70;;;;;;;11.77;100.00;101686.47;4992179;28;20113;-78
2022/10/07 01:35:34;;;;;;;32.13;22.73;;;;;;;11.66;100.00;101674.78;4992469;28;20034;-78
2022/10/07 01:38:04;;;;;;;31.00;22.45;;;;;;;11.74;100.00;101693.94;4991102;28;20481;-78
2022/10/07 01:40:43;;;;;;;29.45;23.00;;;;;;;11.63;100.00;101677.69;4990909;28;20110;-77
2022/10/07 01:43:11;;;;;;;30.23;22.10;;;;;;;11.70;100.00;101693.25;4992405;28;20514;-77
2022/10/07 01:45:39;;;;;;;30.63;22.00;;;;;;;11.57;100.00;101669.06;4992248;28;20465;-78
2022/10/07 01:48:04;;;;;;;29.60;21.52;;;;;;;11.54;100.00;101666.59;4992158;28;20374;-78
2022/10/07 01:50:31;;;;;;;31.17;22.35;;;;;;;11.57;100.00;101679.81;4992086;28;20084;-78
2022/10/07 01:53:33;;;;;;;31.63;22.10;;;;;;;11.49;100.00;101663.34;4990769;28;20080;-78
2022/10/07 01:56:34;;;;;;;28.50;22.52;;;;;;;11.61;100.00;101695.72;4977785;28;20050;-78
2022/10/07 01:59:11;;;;;;;32.83;22.52;;;;;;;11.61;100.00;101693.91;4941081;28;20040;-77
2022/10/07 02:01:39;;;;;;;33.35;22.63;;;;;;;11.59;100.00;101687.78;4971421;28;20113;-78
2022/10/07 02:04:32;;;;;;;29.45;21.73;;;;;;;11.51;100.00;101680.25;4972641;28;20027;-76
2022/10/07 02:07:23;;;;;;;31.05;23.02;;;;;;;11.52;100.00;101683.78;4972103;28;20515;-78
2022/10/07 02:10:01;;;;;;;30.42;22.27;;;;;;;11.37;100.00;101672.28;4964392;28;20054;-78
2022/10/07 02:12:39;;;;;;;29.35;21.08;;;;;;;11.39;100.00;101670.34;4992141;28;20037;-78
2022/10/07 02:15:14;;;;;;;29.90;20.90;;;;;;;11.41;100.00;101679.16;4990433;28;20038;-78
2022/10/07 02:17:50;;;;;;;30.27;21.05;;;;;;;11.40;100.00;101684.66;4992373;28;20465;-77
2022/10/07 02:20:18;;;;;;;31.45;22.48;;;;;;;11.38;100.00;101697.31;4995778;28;20058;-78
2022/10/07 02:22:45;;;;;;;31.25;22.50;;;;;;;11.35;100.00;101686.78;4995845;28;20429;-78
2022/10/07 02:25:14;;;;;;;31.13;21.40;;;;;;;11.31;100.00;101680.78;4995605;28;20048;-78
2022/10/07 02:27:41;;;;;;;31.98;23.05;;;;;;;11.21;100.00;101668.06;4995580;28;20026;-78
2022/10/07 02:30:12;;;;;;;32.33;23.70;;;;;;;11.21;100.00;101673.44;4994158;28;20144;-79
2022/10/07 02:32:41;;;;;;;29.95;21.55;;;;;;;11.22;100.00;101686.78;4994277;28;20477;-77
2022/10/07 02:35:46;;;;;;;30.55;23.02;;;;;;;11.20;100.00;101687.84;4995562;28;20035;-77
2022/10/07 02:38:15;;;;;;;30.88;22.13;;;;;;;11.16;100.00;101680.97;4995599;28;20047;-77
2022/10/07 02:40:53;;;;;;;27.65;21.08;;;;;;;11.08;100.00;101680.63;4994787;28;20030;-77
2022/10/07 02:43:40;;;;;;;32.95;22.65;;;;;;;11.14;100.00;101693.63;4994085;28;20046;-78
2022/10/07 02:46:16;;;;;;;30.40;21.67;;;;;;;11.03;100.00;101680.09;4995531;28;20516;-78
2022/10/07 02:48:57;;;;;;;30.20;22.55;;;;;;;11.07;100.00;101693.19;4995184;28;20030;-77
2022/10/07 02:51:45;;;;;;;23.45;19.23;;;;;;;11.04;100.00;101693.41;4993987;28;20043;-77
2022/10/07 02:54:15;;;;;;;28.75;21.55;;;;;;;10.84;100.00;101661.66;4994939;28;20023;-78
2022/10/07 02:56:42;;;;;;;28.98;21.58;;;;;;;10.99;100.00;101689.31;4995087;28;20030;-78
2022/10/07 02:59:10;;;;;;;29.98;20.58;;;;;;;10.98;100.00;101692.97;4995000;28;20026;-78
2022/10/07 03:01:44;;;;;;;27.95;21.38;;;;;;;10.88;100.00;101686.50;4994977;28;20045;-78
2022/10/07 03:04:10;;;;;;;31.45;21.90;;;;;;;10.94;100.00;101692.28;4994892;28;20027;-78
2022/10/07 03:06:35;;;;;;;29.27;20.77;;;;;;;10.92;100.00;101688.88;4993564;28;20073;-77
2022/10/07 03:09:02;;;;;;;28.40;20.88;;;;;;;10.90;100.00;101690.78;4992415;28;20031;-67
2022/10/07 03:11:28;;;;;;;25.27;20.65;;;;;;;10.84;100.00;101691.19;4992751;28;20109;-78
2022/10/07 03:13:53;;;;;;;27.80;19.55;;;;;;;10.84;100.00;101690.34;4994625;28;20121;-78
2022/10/07 03:16:19;;;;;;;25.08;20.08;;;;;;;10.82;100.00;101681.53;4993208;28;20027;-78
2022/10/07 03:18:45;;;;;;;27.00;19.75;;;;;;;10.79;100.00;101682.59;4994555;28;20473;-78
2022/10/07 03:21:10;;;;;;;25.67;19.50;;;;;;;10.66;100.00;101662.91;4994614;28;20027;-78
2022/10/07 03:23:37;;;;;;;23.08;18.02;;;;;;;10.75;100.00;101674.84;4994567;28;20069;-77
2022/10/07 03:26:03;;;;;;;26.85;19.27;;;;;;;10.63;100.00;101664.94;4993196;28;20026;-66
2022/10/07 03:28:34;;;;;;;24.48;19.75;;;;;;;10.69;100.00;101692.25;4990961;28;20034;-66
2022/10/07 03:31:05;;;;;;;25.20;19.15;;;;;;;10.68;100.00;101685.13;4991871;28;20026;-66
2022/10/07 03:33:31;;;;;;;24.30;18.25;;;;;;;10.65;100.00;101684.50;4992656;28;20033;-67
2022/10/07 03:35:56;;;;;;;24.63;19.40;;;;;;;10.63;100.00;101689.97;4992740;28;20042;-66
2022/10/07 03:38:22;;;;;;;23.27;18.23;;;;;;;10.61;100.00;101688.34;4992511;28;20022;-65
2022/10/07 03:40:48;;;;;;;23.05;18.58;;;;;;;10.59;100.00;101690.25;4988252;28;20036;-65
2022/10/07 03:43:14;;;;;;;22.35;17.67;;;;;;;10.39;100.00;101661.22;4991704;28;20085;-66
2022/10/07 03:45:43;;;;;;;23.08;18.02;;;;;;;10.55;100.00;101692.25;4991874;28;20038;-66
2022/10/07 03:48:09;;;;;;;24.75;18.90;;;;;;;10.41;100.00;101665.50;5007145;28;20026;-66
2022/10/07 03:50:36;;;;;;;22.63;18.45;;;;;;;10.45;100.00;101671.53;4994229;28;20539;-66
2022/10/07 03:53:01;;;;;;;25.40;18.15;;;;;;;10.49;100.00;101681.09;4998666;28;20036;-66
2022/10/07 03:55:27;;;;;;;21.63;17.92;;;;;;;10.40;100.00;101674.53;5000930;28;20022;-67
2022/10/07 03:57:52;;;;;;;26.98;18.25;;;;;;;10.32;100.00;101659.91;5005919;28;20030;-65
2022/10/07 04:00:22;;;;;;;25.05;17.45;;;;;;;10.28;100.00;101659.22;4995364;28;20026;-66
2022/10/07 04:02:48;;;;;;;22.77;17.40;;;;;;;10.39;100.00;101675.50;5005910;28;20113;-66
2022/10/07 04:05:16;;;;;;;24.30;18.13;;;;;;;10.30;100.00;101661.81;4995921;28;20747;-66
2022/10/07 04:07:46;;;;;;;24.05;18.55;;;;;;;10.32;100.00;101674.13;4997221;28;20042;-67
2022/10/07 04:10:14;;;;;;;24.27;18.75;;;;;;;10.30;100.00;101667.16;4998511;28;20065;-66
2022/10/07 04:12:40;;;;;;;24.50;17.63;;;;;;;10.26;100.00;101660.28;4995258;28;20040;-67
2022/10/07 04:15:06;;;;;;;22.75;18.85;;;;;;;10.21;100.00;101660.59;5002191;28;20040;-66
2022/10/07 04:17:32;;;;;;;21.85;17.60;;;;;;;10.24;100.00;101673.78;5002613;28;20445;-66
2022/10/07 04:19:58;;;;;;;25.02;17.77;;;;;;;10.10;100.00;101644.34;4996354;28;20033;-66
2022/10/07 04:22:24;;;;;;;24.75;18.48;;;;;;;10.11;100.00;101645.19;5007645;28;20069;-65
2022/10/07 04:27:33;;;;;;;22.55;19.00;;;;;;;10.05;100.00;101641.06;4984682;28;20041;-67
2022/10/07 04:29:59;;;;;;;21.90;18.13;;;;;;;10.04;100.00;101642.03;5000157;28;20038;-66
2022/10/07 04:32:24;;;;;;;21.45;18.33;;;;;;;10.08;100.00;101653.44;4991636;28;20034;-66
2022/10/07 04:34:50;;;;;;;24.38;18.77;;;;;;;10.02;100.00;101646.63;4991664;28;20472;-66
2022/10/07 04:37:15;;;;;;;22.75;17.85;;;;;;;10.07;100.00;101668.66;4990112;28;20110;-65
2022/10/07 04:39:41;;;;;;;28.77;17.83;;;;;;;9.99;100.00;101649.50;4991705;28;20381;-65
2022/10/07 04:42:06;;;;;;;25.20;18.48;;;;;;;10.03;100.00;101663.56;4988520;28;20058;-66
2022/10/07 04:44:32;;;;;;;22.48;17.55;;;;;;;9.95;100.00;101653.34;4989811;28;20712;-65
2022/10/07 04:46:57;;;;;;;24.33;19.48;;;;;;;9.99;100.00;101672.78;4990943;28;20142;-66
2022/10/07 04:49:24;;;;;;;24.35;18.60;;;;;;;9.88;100.00;101652.00;4989905;28;20417;-65
2022/10/07 04:51:49;;;;;;;26.50;18.15;;;;;;;9.88;100.00;101654.69;4990721;28;20034;-66
2022/10/07 04:54:15;;;;;;;22.77;18.02;;;;;;;9.91;100.00;101670.56;4991356;28;20038;-66
2022/10/07 04:56:40;;;;;;;24.55;18.33;;;;;;;9.77;100.00;101654.50;4980796;28;20054;-67
2022/10/07 04:59:06;;;;;;;26.75;18.00;;;;;;;9.88;100.00;101667.22;4981737;28;20481;-67
2022/10/07 05:01:31;;;;;;;24.70;18.27;;;;;;;9.85;100.00;101675.44;4991086;28;20049;-66
2022/10/07 05:03:58;;;;;;;27.38;19.17;;;;;;;9.84;100.00;101673.72;4990667;28;20034;-65
2022/10/07 05:06:23;;;;;;;23.33;17.25;;;;;;;9.78;100.00;101666.94;4991156;28;20126;-66
2022/10/07 05:08:51;;;;;;;24.90;17.98;;;;;;;9.81;100.00;101671.25;4989573;28;20113;-66
2022/10/07 05:11:16;;;;;;;20.35;17.33;;;;;;;9.77;100.00;101665.22;4990993;28;20488;-67
2022/10/07 05:13:41;;;;;;;25.08;18.17;;;;;;;9.79;100.00;101659.75;4991218;28;20026;-66
2022/10/07 05:16:08;;;;;;;21.23;18.42;;;;;;;9.82;100.00;101665.78;4989918;28;20041;-65
2022/10/07 05:18:35;;;;;;;30.08;19.33;;;;;;;9.77;100.00;101657.16;4990970;28;20081;-66
2022/10/07 05:21:06;;;;;;;28.23;20.15;;;;;;;9.77;100.00;101661.69;4990587;28;20035;-65
2022/10/07 05:23:34;;;;;;;27.30;20.38;;;;;;;9.86;100.00;101678.03;4989049;28;20085;-66
2022/10/07 05:26:03;;;;;;;31.75;20.45;;;;;;;9.89;100.00;101685.00;4989327;28;20030;-67
2022/10/07 05:28:29;;;;;;;24.92;19.27;;;;;;;9.87;100.00;101665.50;4989174;28;20061;-66
2022/10/07 05:31:07;;;;;;;27.77;19.95;;;;;;;9.90;100.00;101666.16;4988388;28;20053;-67
2022/10/07 05:33:33;;;;;;;31.90;20.88;;;;;;;9.91;100.00;101665.22;4990211;28;20037;-66
2022/10/07 05:35:59;;;;;;;27.83;20.33;;;;;;;9.93;100.00;101667.81;4989660;28;20374;-67
2022/10/07 05:38:25;;;;;;;28.23;18.70;;;;;;;9.95;100.00;101666.72;4989581;28;20045;-66
2022/10/07 05:40:58;;;;;;;27.42;20.13;;;;;;;9.98;100.00;101671.03;4990515;28;20060;-67
2022/10/07 05:43:24;;;;;;;27.73;20.02;;;;;;;9.92;100.00;101658.88;4989049;28;20056;-66
2022/10/07 05:46:00;;;;;;;30.80;20.55;;;;;;;10.04;100.00;101679.56;4988529;28;20132;-65
2022/10/07 05:48:27;;;;;;;30.70;22.70;;;;;;;10.09;100.00;101674.78;4990202;28;20054;-66
2022/10/07 05:50:53;;;;;;;33.38;22.80;;;;;;;10.06;100.00;101666.06;4990121;28;20640;-66
2022/10/07 05:53:19;;;;;;;28.70;22.08;;;;;;;10.18;100.00;101676.00;4989873;28;20046;-66
2022/10/07 05:55:44;;;;;;;32.70;23.05;;;;;;;10.14;100.00;101664.63;4989133;28;20188;-67
2022/10/07 05:58:12;;;;;;;32.67;22.83;;;;;;;10.17;100.00;101660.88;4990418;28;20022;-66
2022/10/07 06:00:41;;;;;;;31.85;21.83;;;;;;;10.26;100.00;101674.56;4990322;28;20018;-66
2022/10/07 06:03:07;;;;;;;37.63;24.63;;;;;;;10.33;100.00;101683.94;4988973;28;20077;-66
2022/10/07 06:05:32;;;;;;;50.00;24.25;;;;;;;10.37;100.00;101673.84;4990145;28;20069;-66
2022/10/07 06:07:58;;;;;;;64.90;26.25;;;;;;;10.43;100.00;101679.69;4990190;28;20091;-67
2022/10/07 06:13:09;;;;;;;169.73;33.30;;;;;;;10.56;100.00;101685.09;4990402;28;20029;-67
2022/10/07 06:15:35;;;;;;;151.65;33.33;;;;;;;10.63;100.00;101684.59;4990320;28;20744;-65
2022/10/07 06:18:02;;;;;;;135.45;35.20;;;;;;;10.67;100.00;101680.72;4989865;28;20490;-66
2022/10/07 06:20:27;;;;;;;174.02;36.78;;;;;;;10.72;100.00;101685.78;4989833;28;20046;-67
2022/10/07 06:22:54;;;;;;;112.38;33.40;;;;;;;10.81;100.00;101688.72;4989862;28;20088;-66
2022/10/07 06:25:20;;;;;;;81.32;30.73;;;;;;;10.88;100.00;101684.69;4990006;28;20030;-67
2022/10/07 06:27:45;;;;;;;78.60;29.75;;;;;;;10.89;100.00;101674.78;4988589;28;20022;-65
2022/10/07 06:30:11;;;;;;;60.67;28.63;;;;;;;11.10;100.00;101692.97;4989954;28;20048;-66
2022/10/07 06:32:37;;;;;;;42.72;29.20;;;;;;;11.19;100.00;101678.91;4988532;28;20030;-65
2022/10/07 06:35:03;;;;;;;50.92;30.17;;;;;;;11.30;100.00;101684.44;4989879;28;20030;-67
2022/10/07 06:37:30;;;;;;;48.60;30.90;;;;;;;11.43;100.00;101685.31;4989895;28;20072;-67
2022/10/07 06:39:56;;;;;;;40.83;29.98;;;;;;;11.58;100.00;101683.38;4989749;28;20634;-67
2022/10/07 06:42:21;;;;;;;38.60;29.20;;;;;;;11.65;100.00;101662.31;4989693;28;20141;-66
2022/10/07 06:44:47;;;;;;;42.15;29.23;;;;;;;11.93;100.00;101691.66;4988691;28;20108;-66
2022/10/07 06:47:12;;;;;;;37.67;29.13;;;;;;;12.04;100.00;101667.53;4990159;28;20356;-66
2022/10/07 06:49:38;;;;;;;40.85;29.55;;;;;;;12.23;100.00;101666.09;4989882;28;20041;-67
2022/10/07 06:52:03;;;;;;;38.42;29.38;;;;;;;12.45;100.00;101668.06;4989733;28;20077;-66
2022/10/07 06:54:29;;;;;;;35.60;29.73;;;;;;;12.57;100.00;101659.03;4989804;28;20038;-66
2022/10/07 06:56:54;;;;;;;34.38;28.98;;;;;;;12.84;100.00;101665.06;4989414;28;20058;-66
2022/10/07 06:59:20;;;;;;;34.90;28.85;;;;;;;13.01;100.00;101664.66;4989527;28;20030;-66
2022/10/07 07:01:45;;;;;;;37.95;28.15;;;;;;;13.32;100.00;101675.63;4989657;28;20061;-65
2022/10/07 07:04:10;;;;;;;32.63;26.23;;;;;;;13.52;100.00;101666.00;4989778;28;20076;-67
2022/10/07 07:06:37;;;;;;;34.97;27.38;;;;;;;13.77;100.00;101664.91;4994385;28;20034;-77
2022/10/07 07:09:04;;;;;;;31.48;26.73;;;;;;;14.01;100.00;101663.81;4994513;28;20022;-77
2022/10/07 07:11:37;;;;;;;36.90;26.90;;;;;;;14.32;100.00;101673.84;4994397;28;20480;-77
2022/10/07 07:14:10;;;;;;;31.95;25.30;;;;;;;14.66;100.00;101677.31;4994217;28;20033;-77
2022/10/07 07:16:36;;;;;;;35.85;25.58;;;;;;;14.92;100.00;101667.88;4994460;28;20045;-76
2022/10/07 07:19:07;;;;;;;32.55;24.33;;;;;;;15.19;100.00;101650.19;4993168;28;20082;-65
2022/10/07 07:21:34;;;;;;;31.55;23.25;;;;;;;15.67;97.01;101664.88;4991475;28;20373;-66
2022/10/07 07:24:00;;;;;;;37.05;24.75;;;;;;;16.05;93.88;101663.34;4992686;28;20038;-65
2022/10/07 07:26:27;;;;;;;32.75;21.60;;;;;;;16.40;90.60;101650.19;4991520;28;20026;-66
2022/10/07 07:28:53;;;;;;;29.02;20.60;;;;;;;16.76;87.33;101657.66;4992607;28;20069;-66
2022/10/07 07:31:19;;;;;;;23.45;18.05;;;;;;;17.24;82.75;101659.38;4992666;28;20030;-67
2022/10/07 07:33:51;;;;;;;20.45;16.98;;;;;;;17.78;78.75;101643.28;4992938;28;20026;-66
2022/10/07 07:36:18;;;;;;;23.20;16.40;;;;;;;18.58;74.16;101657.03;4991161;28;20037;-66
2022/10/07 07:38:52;;;;;;;19.88;15.02;;;;;;;19.19;70.77;101652.50;4992830;28;20030;-66
2022/10/07 07:41:24;;;;;;;24.95;16.30;;;;;;;19.73;67.50;101654.97;4992514;28;20115;-66
2022/10/07 07:43:52;;;;;;;17.52;13.77;;;;;;;20.35;64.76;101636.56;4992404;28;20083;-65
2022/10/07 07:46:20;;;;;;;20.77;13.65;;;;;;;20.80;61.99;101643.28;4991192;28;20092;-65
2022/10/07 07:48:48;;;;;;;17.45;12.63;;;;;;;20.92;60.70;101625.59;4992434;28;20496;-65
2022/10/07 07:51:16;;;;;;;16.85;12.30;;;;;;;21.47;59.33;101639.44;4983166;28;20030;-66
2022/10/07 07:53:42;;;;;;;19.52;12.68;;;;;;;22.02;58.47;101635.72;4991538;28;20030;-67
2022/10/07 07:56:08;;;;;;;13.60;11.90;;;;;;;22.41;56.42;101624.78;4990602;28;20049;-66
2022/10/07 07:58:34;;;;;;;16.65;11.10;;;;;;;22.81;55.24;101619.06;4992342;28;20042;-65
2022/10/07 08:01:03;;;;;;;14.65;10.73;;;;;;;23.01;54.05;101620.28;4991950;28;20097;-66
2022/10/07 08:03:29;;;;;;;15.18;10.65;;;;;;;23.47;52.98;101615.63;4991976;28;20030;-67
2022/10/07 08:05:54;;;;;;;12.90;10.10;;;;;;;23.84;51.82;101621.88;4991656;28;20088;-66
2022/10/07 08:08:20;;;;;;;13.80;9.88;;;;;;;24.00;51.06;101621.72;4991925;28;20026;-65
2022/10/07 08:10:46;;;;;;;12.43;9.65;;;;;;;24.15;50.19;101618.97;4990791;28;20042;-66
2022/10/07 08:13:11;;;;;;;11.85;9.82;;;;;;;23.28;51.88;101586.88;4991942;28;20030;-67
2022/10/07 08:15:37;;;;;;;10.82;9.25;;;;;;;22.71;53.34;101602.06;4991809;28;20072;-67
2022/10/07 08:18:05;;;;;;;11.98;9.10;;;;;;;22.42;54.71;101614.69;4991755;28;20022;-67
2022/10/07 08:20:30;;;;;;;11.52;9.75;;;;;;;21.66;57.03;101603.53;4991152;28;20531;-68
2022/10/07 08:22:56;;;;;;;11.45;10.18;;;;;;;21.16;59.07;101609.28;4990343;28;20034;-66
2022/10/07 08:25:23;;;;;;;12.43;10.05;;;;;;;20.67;61.24;101585.66;4991688;28;20041;-66
2022/10/07 08:27:49;;;;;;;13.10;10.07;;;;;;;20.50;62.74;101618.56;4990243;28;20027;-65
2022/10/07 08:30:14;;;;;;;12.35;10.75;;;;;;;20.21;64.52;101607.22;4990494;28;20038;-66
2022/10/07 08:32:40;;;;;;;12.02;10.27;;;;;;;19.93;66.46;101612.88;4989980;28;20026;-65
2022/10/07 08:35:06;;;;;;;15.20;10.93;;;;;;;19.74;67.53;101615.81;4989606;28;20393;-67
2022/10/07 08:37:31;;;;;;;13.20;10.52;;;;;;;19.68;67.45;101612.91;4991184;28;20026;-74
2022/10/07 08:39:57;;;;;;;16.33;10.60;;;;;;;19.49;67.73;101589.50;4991352;28;20038;-77
2022/10/07 08:42:40;;;;;;;15.63;10.05;;;;;;;19.79;67.12;101610.75;4992396;28;20050;-76
2022/10/07 08:45:11;;;;;;;14.77;8.88;;;;;;;20.02;65.07;101583.78;4992461;28;20374;-75
2022/10/07 08:47:44;;;;;;;11.23;8.00;;;;;;;21.85;59.47;101597.69;4991871;28;20054;-77
2022/10/07 08:50:22;;;;;;;12.23;9.63;;;;;;;23.98;53.42;101588.16;4992428;28;20096;-77
2022/10/07 08:53:07;;;;;;;11.45;9.43;;;;;;;25.72;47.58;101572.81;4992785;28;20723;-76
2022/10/07 08:55:48;;;;;;;10.15;7.53;;;;;;;27.26;43.70;101568.22;4991524;28;20519;-77
2022/10/07 08:58:48;;;;;;;14.60;7.88;;;;;;;28.54;40.62;101561.72;4991466;28;20049;-77
2022/10/07 09:01:25;;;;;;;9.52;7.75;;;;;;;29.64;37.98;101568.28;4992532;28;20117;-77
2022/10/07 09:04:05;;;;;;;9.85;6.72;;;;;;;30.26;37.08;101558.81;4992047;28;20030;-77
2022/10/07 09:06:49;;;;;;;13.02;7.03;;;;;;;31.07;35.43;101567.41;4992724;28;20025;-76
2022/10/07 09:09:49;;;;;;;10.98;7.43;;;;;;;31.37;34.93;101560.72;4992640;28;20030;-76
2022/10/07 09:12:58;;;;;;;8.60;6.53;;;;;;;31.80;33.38;101555.69;4991184;28;20125;-76
2022/10/07 09:15:40;;;;;;;11.48;5.90;;;;;;;32.11;33.49;101537.75;4974664;28;20052;-75
2022/10/07 09:18:34;;;;;;;8.63;6.10;;;;;;;32.32;32.68;101548.16;4992223;28;20026;-76
2022/10/07 09:21:04;;;;;;;10.77;7.55;;;;;;;32.71;32.59;101543.66;4992003;28;20022;-76
2022/10/07 09:23:32;;;;;;;8.35;6.15;;;;;;;32.65;32.76;101548.28;4990990;28;20034;-76
2022/10/07 09:25:58;;;;;;;7.93;5.70;;;;;;;32.78;32.37;101544.38;4992143;28;20041;-75
2022/10/07 09:28:32;;;;;;;7.65;6.18;;;;;;;33.04;31.77;101546.53;4991621;28;20106;-76
2022/10/07 09:30:59;;;;;;;10.18;6.55;;;;;;;33.20;31.55;101529.81;4992025;28;20072;-75
2022/10/07 09:33:28;;;;;;;8.68;6.35;;;;;;;32.85;32.00;101536.75;4992216;28;20092;-76
2022/10/07 09:36:05;;;;;;;9.18;5.93;;;;;;;32.89;32.04;101541.56;4991959;28;20473;-76
2022/10/07 09:38:32;;;;;;;8.45;5.78;;;;;;;32.91;32.23;101535.75;4991972;28;20026;-75
2022/10/07 09:41:14;;;;;;;10.20;6.40;;;;;;;33.18;31.65;101531.19;4991985;28;20018;-75
2022/10/07 09:44:00;;;;;;;7.88;6.03;;;;;;;33.25;31.46;101529.91;4991685;28;20034;-76
2022/10/07 09:46:42;;;;;;;9.20;6.57;;;;;;;33.53;30.80;101503.94;4991524;28;20452;-75
2022/10/07 09:49:25;;;;;;;6.75;5.68;;;;;;;33.59;30.74;101511.25;4991688;28;20050;-75
2022/10/07 09:51:58;;;;;;;7.43;6.13;;;;;;;33.96;30.82;101504.81;4991499;28;20486;-75
2022/10/07 09:54:25;;;;;;;8.23;6.35;;;;;;;33.77;30.76;101502.56;4991957;28;20035;-75
2022/10/07 09:56:55;;;;;;;10.23;5.93;;;;;;;34.13;30.49;101502.78;4990424;28;20100;-76
2022/10/07 09:59:25;;;;;;;10.00;5.88;;;;;;;34.63;29.32;101503.34;4991799;28;20054;-76
2022/10/07 10:02:12;;;;;;;6.78;5.20;;;;;;;34.39;29.18;101485.28;4991586;28;20022;-76
2022/10/07 10:04:46;;;;;;;8.55;5.70;;;;;;;35.02;28.80;101490.06;4987454;28;20042;-75
2022/10/07 10:07:20;;;;;;;6.53;5.63;;;;;;;34.78;29.18;101490.66;4991638;28;20026;-76
2022/10/07 10:09:54;;;;;;;9.23;5.97;;;;;;;34.92;28.68;101484.41;4991350;28;20042;-76
2022/10/07 10:12:22;;;;;;;11.73;5.40;;;;;;;34.86;28.64;101490.19;4991662;28;20022;-76
2022/10/07 10:14:57;;;;;;;7.32;5.07;;;;;;;34.85;28.84;101477.38;4991390;28;20073;-76
2022/10/07 10:17:37;;;;;;;8.23;5.32;;;;;;;34.86;28.59;101477.09;4991493;28;20022;-76
2022/10/07 10:20:23;;;;;;;7.18;5.03;;;;;;;34.70;28.88;101474.41;4990117;28;20437;-76
2022/10/07 10:22:50;;;;;;;6.20;4.85;;;;;;;34.80;28.55;101472.56;4991507;28;20182;-76
2022/10/07 10:28:20;;;;;;;6.53;5.03;;;;;;;33.62;29.87;101471.78;4991118;28;20061;-76
2022/10/07 10:30:54;;;;;;;8.88;5.43;;;;;;;32.88;31.35;101475.06;4989993;28;20030;-76
2022/10/07 10:33:37;;;;;;;7.72;4.78;;;;;;;31.65;33.07;101465.66;4990364;28;20162;-76
2022/10/07 10:36:08;;;;;;;6.70;4.95;;;;;;;30.11;35.75;101469.78;4990884;28;20030;-76
2022/10/07 10:38:49;;;;;;;6.20;5.60;;;;;;;28.82;37.64;101472.91;4991750;28;20124;-77
2022/10/07 10:41:18;;;;;;;8.98;6.25;;;;;;;27.50;40.80;101468.34;4994721;28;20077;-76
2022/10/07 10:44:06;;;;;;;7.70;6.15;;;;;;;26.53;42.33;101450.78;4995086;28;20034;-76
2022/10/07 10:46:50;;;;;;;8.70;6.13;;;;;;;25.81;44.78;101461.63;4994665;28;20033;-76
2022/10/07 10:49:15;;;;;;;;;;;;;;;25.02;46.40;101453.97;4997015;28;20084;-75
2022/10/07 10:51:44;;;;;;;6.13;5.53;;;;;;;24.78;46.32;101459.06;5004450;28;20331;-76
2022/10/07 10:54:21;;;;;;;7.32;5.90;;;;;;;24.21;48.31;101450.91;5001783;28;20648;-77
2022/10/07 10:56:57;;;;;;;9.35;5.35;;;;;;;23.73;49.82;101437.94;5000284;28;20073;-77
2022/10/07 10:59:54;;;;;;;7.22;5.72;;;;;;;23.45;50.48;101446.00;5010810;28;20025;-76
2022/10/07 11:02:25;;;;;;;8.68;5.78;;;;;;;23.15;51.78;101447.00;5000791;28;20164;-75
2022/10/07 11:05:00;;;;;;;7.88;5.00;;;;;;;22.90;53.02;101448.31;5001880;28;20033;-76
2022/10/07 11:07:38;;;;;;;7.47;5.25;;;;;;;22.57;53.31;101427.78;5000068;28;20168;-77
2022/10/07 11:10:14;;;;;;;7.75;5.07;;;;;;;22.34;53.72;101426.94;5005600;28;20484;-77
2022/10/07 11:12:45;;;;;;;7.93;4.63;;;;;;;22.24;54.15;101443.59;4999374;28;20045;-76
2022/10/07 11:15:17;;;;;;;10.60;5.28;;;;;;;22.14;54.91;101433.91;4998265;28;20034;-75
2022/10/07 11:17:45;;;;;;;5.85;5.00;;;;;;;22.06;54.92;101428.53;5000879;28;20507;-76
2022/10/07 11:20:14;;;;;;;8.75;5.30;;;;;;;22.06;54.94;101428.53;5004635;28;20701;-75
2022/10/07 11:22:49;;;;;;;7.47;5.18;;;;;;;21.98;55.74;101421.25;5004440;28;20477;-76
2022/10/07 11:25:36;;;;;;;10.05;5.50;;;;;;;21.85;56.31;101421.00;4994829;28;20034;-76
2022/10/07 11:28:35;;;;;;;9.32;4.63;;;;;;;21.76;56.46;101413.00;5005069;28;20030;-75
2022/10/07 11:31:11;;;;;;;7.90;4.57;;;;;;;21.68;56.71;101405.69;5001779;28;20113;-76
2022/10/07 11:34:06;;;;;;;8.77;4.90;;;;;;;21.63;56.92;101410.84;5003825;28;20022;-76